Time;durP1;ratioP1;P1;durP2;ratioP2;P2;SDS_P1;SDS_P2;PMS_P1;PMS_P2;Temp;Humidity;BMP_temperature;BMP_pressure;BME280_temperature;BME280_humidity;BME280_pressure;Samples;Min_cycle;Max_cycle;Signal;HPM_P1;HPM_P2
2021/08/20 00:01:39;;;;;;;;;;;16.20;99.90;;;;;;5111632;28;20382;-73
2021/08/20 00:04:06;;;;;;;;;;;16.20;99.90;;;;;;5111734;28;19923;-73
2021/08/20 00:06:33;;;;;;;;;;;16.20;99.90;;;;;;5094822;28;20010;-73
2021/08/20 00:09:05;;;;;;;;;;;16.20;99.90;;;;;;5113182;28;19923;-73
2021/08/20 00:11:32;;;;;;;;;;;16.20;99.90;;;;;;5112604;28;19930;-73
2021/08/20 00:14:04;;;;;;;;;;;16.20;99.90;;;;;;5112874;28;19930;-73
2021/08/20 00:16:36;;;;;;;;;;;16.30;99.90;;;;;;5111809;28;19923;-73
2021/08/20 00:19:08;;;;;;;;;;;16.30;99.90;;;;;;5112697;28;19923;-73
2021/08/20 00:21:39;;;;;;;;;;;16.30;99.90;;;;;;5111515;28;19924;-73
2021/08/20 00:24:14;;;;;;;;;;;16.40;99.90;;;;;;5112678;28;19930;-72
2021/08/20 00:26:46;;;;;;;;;;;16.40;99.90;;;;;;5095330;28;19924;-73
2021/08/20 00:29:17;;;;;;;;;;;16.40;99.90;;;;;;5111332;28;19924;-71
2021/08/20 00:31:49;;;;;;;;;;;16.40;99.90;;;;;;5111016;28;19954;-73
2021/08/20 00:34:21;;;;;;;;;;;16.30;99.90;;;;;;5095022;28;19924;-73
2021/08/20 00:36:51;;;;;;;;;;;16.30;99.90;;;;;;5112509;28;20014;-73
2021/08/20 00:39:23;;;;;;;;;;;16.30;99.90;;;;;;5111384;28;19923;-73
2021/08/20 00:41:50;;;;;;;;;;;16.30;99.90;;;;;;5094003;28;20372;-73
2021/08/20 00:44:22;;;;;;;;;;;16.30;99.90;;;;;;5111471;28;20357;-73
2021/08/20 00:46:49;;;;;;;;;;;16.30;99.90;;;;;;5110665;28;19924;-73
2021/08/20 00:49:16;;;;;;;;;;;16.20;99.90;;;;;;5094142;28;19970;-73
2021/08/20 00:51:45;;;;;;;;;;;16.20;99.90;;;;;;5111000;28;19931;-73
2021/08/20 00:54:12;;;;;;;;;;;16.20;99.90;;;;;;5094260;28;20014;-73
2021/08/20 00:56:40;;;;;;;;;;;16.20;99.90;;;;;;5111067;28;20031;-73
2021/08/20 00:59:12;;;;;;;;;;;16.20;99.90;;;;;;5094664;28;20019;-73
2021/08/20 01:01:39;;;;;;;;;;;16.20;99.90;;;;;;5093375;28;19930;-73
2021/08/20 01:04:11;;;;;;;;;;;16.10;99.90;;;;;;5094460;28;19924;-73
2021/08/20 01:06:43;;;;;;;;;;;16.10;99.90;;;;;;5094217;28;20382;-73
2021/08/20 01:09:15;;;;;;;;;;;16.10;99.90;;;;;;5110970;28;19981;-72
2021/08/20 01:11:43;;;;;;;;;;;16.10;99.90;;;;;;5110554;28;20397;-73
2021/08/20 01:14:14;;;;;;;;;;;16.10;99.90;;;;;;5110866;28;19924;-73
2021/08/20 01:16:41;;;;;;;;;;;16.10;99.90;;;;;;5093854;28;19969;-73
2021/08/20 01:19:08;;;;;;;;;;;16.00;99.90;;;;;;5093217;28;19957;-73
2021/08/20 01:21:39;;;;;;;;;;;16.00;99.90;;;;;;5093662;28;20047;-72
2021/08/20 01:24:11;;;;;;;;;;;15.90;99.90;;;;;;5110288;28;19924;-71
2021/08/20 01:26:46;;;;;;;;;;;15.90;99.90;;;;;;5094123;28;20334;-73
2021/08/20 01:29:20;;;;;;;;;;;15.90;99.90;;;;;;5094508;28;20364;-72
2021/08/20 01:31:48;;;;;;;;;;;15.90;99.90;;;;;;5110548;28;19966;-73
2021/08/20 01:34:19;;;;;;;;;;;15.80;99.90;;;;;;5110748;28;20407;-73
2021/08/20 01:36:50;;;;;;;;;;;15.80;99.90;;;;;;5094394;28;20386;-73
2021/08/20 01:39:22;;;;;;;;;;;15.70;99.90;;;;;;5094339;28;19923;-73
2021/08/20 01:41:48;;;;;;;;;;;15.60;99.90;;;;;;5093408;28;19928;-73
2021/08/20 01:44:16;;;;;;;;;;;15.50;99.90;;;;;;5110543;28;19966;-72
2021/08/20 01:46:48;;;;;;;;;;;15.40;99.90;;;;;;5094437;28;19963;-73
2021/08/20 01:49:15;;;;;;;;;;;15.40;99.90;;;;;;5110508;28;19931;-73
2021/08/20 01:51:42;;;;;;;;;;;15.40;99.90;;;;;;5110173;28;19977;-73
2021/08/20 01:54:08;;;;;;;;;;;15.40;99.90;;;;;;5093605;28;19977;-73
2021/08/20 01:56:35;;;;;;;;;;;15.40;99.90;;;;;;5093437;28;19924;-71
2021/08/20 01:59:09;;;;;;;;;;;15.30;99.90;;;;;;5113716;28;19976;-73
2021/08/20 02:01:36;;;;;;;;;;;15.40;99.90;;;;;;5113727;27;19931;-73
2021/08/20 02:04:04;;;;;;;;;;;15.40;99.90;;;;;;5114054;28;19923;-73
2021/08/20 02:06:36;;;;;;;;;;;15.40;99.90;;;;;;5097943;28;20327;-73
2021/08/20 02:09:08;;;;;;;;;;;15.30;99.90;;;;;;5114122;28;19928;-73
2021/08/20 02:11:37;;;;;;;;;;;15.30;99.90;;;;;;5113757;28;20026;-73
2021/08/20 02:14:09;;;;;;;;;;;15.30;99.90;;;;;;5114194;28;19924;-73
2021/08/20 02:16:41;;;;;;;;;;;15.30;99.90;;;;;;5113664;28;19927;-73
2021/08/20 02:19:13;;;;;;;;;;;15.30;99.90;;;;;;5113910;28;19951;-73
2021/08/20 02:21:45;;;;;;;;;;;15.30;99.90;;;;;;5113400;28;19930;-73
2021/08/20 02:24:21;;;;;;;;;;;15.20;99.90;;;;;;5098042;28;19924;-73
2021/08/20 02:26:49;;;;;;;;;;;15.30;99.90;;;;;;5113648;28;19935;-73
2021/08/20 02:29:20;;;;;;;;;;;15.30;99.90;;;;;;5113556;28;20030;-73
2021/08/20 02:31:52;;;;;;;;;;;15.30;99.90;;;;;;5097015;28;20386;-73
2021/08/20 02:34:19;;;;;;;;;;;15.30;99.90;;;;;;5113444;28;20336;-73
2021/08/20 02:36:46;;;;;;;;;;;15.30;99.90;;;;;;5096437;28;19924;-72
2021/08/20 02:39:18;;;;;;;;;;;15.30;99.90;;;;;;5097234;28;20041;-73
2021/08/20 02:41:45;;;;;;;;;;;15.30;99.90;;;;;;5113025;28;19924;-73
2021/08/20 02:44:11;;;;;;;;;;;15.30;99.90;;;;;;5113353;28;19970;-73
2021/08/20 02:46:44;;;;;;;;;;;15.30;99.90;;;;;;5096923;28;20453;-73
2021/08/20 02:49:11;;;;;;;;;;;15.30;99.90;;;;;;5096372;28;19924;-73
2021/08/20 02:51:44;;;;;;;;;;;15.30;99.90;;;;;;5096803;28;20297;-73
2021/08/20 02:54:11;;;;;;;;;;;15.30;99.90;;;;;;5096396;28;19924;-71
2021/08/20 02:56:42;;;;;;;;;;;15.30;99.90;;;;;;5113292;28;20290;-73
2021/08/20 02:59:10;;;;;;;;;;;15.30;99.90;;;;;;5112861;28;20463;-73
2021/08/20 03:01:36;;;;;;;;;;;15.30;99.90;;;;;;5095672;28;19923;-73
2021/08/20 03:04:13;;;;;;;;;;;15.20;99.90;;;;;;5113006;28;20396;-71
2021/08/20 03:06:45;;;;;;;;;;;15.20;99.90;;;;;;5113051;28;19927;-73
2021/08/20 03:09:27;;;;;;;;;;;15.30;99.90;;;;;;5112227;28;19924;-73
2021/08/20 03:11:59;;;;;;;;;;;15.30;99.90;;;;;;5112605;28;19977;-73
2021/08/20 03:14:37;;;;;;;;;;;15.40;99.90;;;;;;5097354;28;19924;-73
2021/08/20 03:17:03;;;;;;;;;;;15.40;99.90;;;;;;5112679;28;19923;-73
2021/08/20 03:19:35;;;;;;;;;;;15.40;99.90;;;;;;5096267;28;19923;-73
2021/08/20 03:22:07;;;;;;;;;;;15.40;99.90;;;;;;5112200;28;19924;-73
2021/08/20 03:24:39;;;;;;;;;;;15.40;99.90;;;;;;5096295;28;19928;-73
2021/08/20 03:27:11;;;;;;;;;;;15.40;99.90;;;;;;5112602;28;19924;-73
2021/08/20 03:29:47;;;;;;;;;;;15.40;99.90;;;;;;5096751;28;19930;-73
2021/08/20 03:32:21;;;;;;;;;;;15.50;99.90;;;;;;5096559;28;19923;-73
2021/08/20 03:34:54;;;;;;;;;;;15.50;99.90;;;;;;5096224;28;20371;-73
2021/08/20 03:37:26;;;;;;;;;;;15.50;99.90;;;;;;5096111;28;19930;-73
2021/08/20 03:39:54;;;;;;;;;;;15.50;99.90;;;;;;5112236;28;19923;-73
2021/08/20 03:42:25;;;;;;;;;;;15.30;99.90;;;;;;5095734;28;19924;-73
2021/08/20 03:45:25;;;;;;;;;;;15.30;99.90;;;;;;5112187;28;20015;-73
2021/08/20 03:47:58;;;;;;;;;;;15.10;99.90;;;;;;5096096;28;19924;-73
2021/08/20 03:50:25;;;;;;;;;;;15.10;99.90;;;;;;5111724;28;19924;-72
2021/08/20 03:52:51;;;;;;;;;;;15.00;99.90;;;;;;5112336;28;20014;-73
2021/08/20 03:55:18;;;;;;;;;;;15.00;99.90;;;;;;5111245;28;19931;-73
2021/08/20 03:58:11;;;;;;;;;;;15.00;99.90;;;;;;5112329;28;19930;-73
2021/08/20 04:00:40;;;;;;;;;;;15.10;99.90;;;;;;5111109;28;19931;-73
2021/08/20 04:03:07;;;;;;;;;;;15.10;99.90;;;;;;5094069;28;19947;-73
2021/08/20 04:05:34;;;;;;;;;;;15.20;99.90;;;;;;5111354;28;19923;-73
2021/08/20 04:08:13;;;;;;;;;;;15.20;99.90;;;;;;5111026;28;19959;-73
2021/08/20 04:10:58;;;;;;;;;;;15.20;99.90;;;;;;5110982;28;20030;-71
2021/08/20 04:13:40;;;;;;;;;;;15.30;99.90;;;;;;5111001;28;20011;-71
2021/08/20 04:16:07;;;;;;;;;;;15.30;99.90;;;;;;5110939;28;19924;-73
2021/08/20 04:18:40;;;;;;;;;;;15.30;99.90;;;;;;5094703;28;19928;-73
2021/08/20 04:21:08;;;;;;;;;;;15.30;99.90;;;;;;5109810;28;20010;-74
2021/08/20 04:23:43;;;;;;;;;;;15.30;99.90;;;;;;5095124;28;19931;-73
2021/08/20 04:26:15;;;;;;;;;;;15.40;99.90;;;;;;5110902;28;19928;-72
2021/08/20 04:29:01;;;;;;;;;;;15.30;99.90;;;;;;5096496;28;20293;-73
2021/08/20 04:31:56;;;;;;;;;;;15.30;99.90;;;;;;5100088;28;19930;-74
2021/08/20 04:35:03;;;;;;;;;;;15.30;99.90;;;;;;5111129;28;19924;-73
2021/08/20 04:37:53;;;;;;;;;;;15.30;99.90;;;;;;5112440;28;19930;-73
2021/08/20 04:40:34;;;;;;;;;;;15.40;99.90;;;;;;5096606;28;19923;-73
2021/08/20 04:43:26;;;;;;;;;;;15.40;99.90;;;;;;5090294;28;20369;-72
2021/08/20 04:46:14;;;;;;;;;;;15.40;99.90;;;;;;5111464;28;20389;-73
2021/08/20 04:48:57;;;;;;;;;;;15.40;99.90;;;;;;5112471;28;20305;-73
2021/08/20 04:51:50;;;;;;;;;;;15.40;99.90;;;;;;5110840;28;19924;-73
2021/08/20 04:54:22;;;;;;;;;;;15.40;99.90;;;;;;5095264;28;19928;-73
2021/08/20 04:57:12;;;;;;;;;;;15.40;99.90;;;;;;5108394;28;20305;-73
2021/08/20 04:59:44;;;;;;;;;;;15.50;99.90;;;;;;5094860;28;20034;-73
2021/08/20 05:02:16;;;;;;;;;;;15.50;99.90;;;;;;5094603;28;19931;-73
2021/08/20 05:04:48;;;;;;;;;;;15.50;99.90;;;;;;5110981;28;19925;-72
2021/08/20 05:07:19;;;;;;;;;;;15.50;99.90;;;;;;5110927;28;20019;-73
2021/08/20 05:09:46;;;;;;;;;;;15.60;99.90;;;;;;5110989;28;19930;-73
2021/08/20 05:12:13;;;;;;;;;;;15.60;99.90;;;;;;5110905;28;19974;-73
2021/08/20 05:14:44;;;;;;;;;;;15.70;99.90;;;;;;5094599;28;20310;-72
2021/08/20 05:17:16;;;;;;;;;;;15.70;99.90;;;;;;5112314;28;19924;-73
2021/08/20 05:19:47;;;;;;;;;;;15.70;99.90;;;;;;5110852;28;20042;-73
2021/08/20 05:22:14;;;;;;;;;;;15.70;99.90;;;;;;5111864;28;19924;-73
2021/08/20 05:24:46;;;;;;;;;;;15.70;99.90;;;;;;5111029;28;19924;-73
2021/08/20 05:27:17;;;;;;;;;;;15.80;99.90;;;;;;5094740;28;19928;-73
2021/08/20 05:29:44;;;;;;;;;;;15.80;99.90;;;;;;5111095;28;20301;-73
2021/08/20 05:32:10;;;;;;;;;;;15.80;99.90;;;;;;5095136;28;19930;-73
2021/08/20 05:34:42;;;;;;;;;;;15.90;99.90;;;;;;5099052;28;20290;-74
2021/08/20 05:37:09;;;;;;;;;;;15.80;99.90;;;;;;5114929;28;20028;-73
2021/08/20 05:39:40;;;;;;;;;;;15.90;99.90;;;;;;5098406;28;19923;-72
2021/08/20 05:42:12;;;;;;;;;;;15.90;99.90;;;;;;5114154;28;19946;-73
2021/08/20 05:44:44;;;;;;;;;;;16.00;99.90;;;;;;5114448;28;19930;-73
2021/08/20 05:47:15;;;;;;;;;;;16.00;99.90;;;;;;5114490;28;19930;-73
2021/08/20 05:49:42;;;;;;;;;;;16.00;99.90;;;;;;5097457;28;19966;-73
2021/08/20 05:52:14;;;;;;;;;;;16.10;99.90;;;;;;5097792;28;19927;-73
2021/08/20 05:54:40;;;;;;;;;;;16.10;99.90;;;;;;5114227;28;19924;-73
2021/08/20 05:57:12;;;;;;;;;;;16.20;99.90;;;;;;5115673;28;19924;-73
2021/08/20 05:59:43;;;;;;;;;;;16.30;99.90;;;;;;5114078;28;19924;-73
2021/08/20 06:02:15;;;;;;;;;;;16.30;99.90;;;;;;5115132;28;19923;-72
2021/08/20 06:04:47;;;;;;;;;;;16.30;99.90;;;;;;5114277;28;20385;-72
2021/08/20 06:07:19;;;;;;;;;;;16.40;99.90;;;;;;5097858;28;19965;-73
2021/08/20 06:09:51;;;;;;;;;;;16.40;99.90;;;;;;5114037;28;20396;-73
2021/08/20 06:12:18;;;;;;;;;;;16.40;99.90;;;;;;5113584;28;20038;-71
2021/08/20 06:14:44;;;;;;;;;;;16.40;99.90;;;;;;5097034;28;19924;-73
2021/08/20 06:17:16;;;;;;;;;;;16.50;99.90;;;;;;5115019;28;19924;-73
2021/08/20 06:19:43;;;;;;;;;;;16.50;99.90;;;;;;5113792;28;20512;-73
2021/08/20 06:22:14;;;;;;;;;;;16.50;99.90;;;;;;5114928;27;19924;-74
2021/08/20 06:24:46;;;;;;;;;;;16.50;99.90;;;;;;5097556;28;19947;-73
2021/08/20 06:27:13;;;;;;;;;;;16.50;99.90;;;;;;5113883;28;19924;-73
2021/08/20 06:29:39;;;;;;;;;;;16.60;99.90;;;;;;5096799;28;20364;-73
2021/08/20 06:32:06;;;;;;;;;;;16.60;99.90;;;;;;5113197;28;19927;-73
2021/08/20 06:34:38;;;;;;;;;;;16.60;99.90;;;;;;5115037;28;19930;-73
2021/08/20 06:37:10;;;;;;;;;;;16.60;99.90;;;;;;5113804;28;20377;-72
2021/08/20 06:39:36;;;;;;;;;;;16.70;99.90;;;;;;5113410;28;20412;-73
2021/08/20 06:42:08;;;;;;;;;;;16.70;99.90;;;;;;5113010;28;19924;-72
2021/08/20 06:44:34;;;;;;;;;;;16.80;99.90;;;;;;5095620;28;19930;-73
2021/08/20 06:47:01;;;;;;;;;;;16.80;99.90;;;;;;5113292;28;19924;-72
2021/08/20 06:49:28;;;;;;;;;;;16.80;99.90;;;;;;5114553;28;20004;-73
2021/08/20 06:51:59;;;;;;;;;;;16.80;99.90;;;;;;5096850;28;19934;-73
2021/08/20 06:54:31;;;;;;;;;;;16.90;99.90;;;;;;5096974;28;19973;-73
2021/08/20 06:56:58;;;;;;;;;;;16.90;99.90;;;;;;5113110;28;20014;-73
2021/08/20 06:59:29;;;;;;;;;;;16.90;99.90;;;;;;5113080;28;19934;-73
2021/08/20 07:01:56;;;;;;;;;;;16.90;99.90;;;;;;5095859;28;20026;-73
2021/08/20 07:04:28;;;;;;;;;;;16.90;99.90;;;;;;5113076;28;19924;-73
2021/08/20 07:06:59;;;;;;;;;;;16.90;99.90;;;;;;5113255;28;19934;-73
2021/08/20 07:09:31;;;;;;;;;;;17.00;99.90;;;;;;5112749;28;20381;-74
2021/08/20 07:12:02;;;;;;;;;;;17.00;99.90;;;;;;5114027;28;19938;-73
2021/08/20 07:14:34;;;;;;;;;;;17.10;99.90;;;;;;5112763;28;19924;-72
2021/08/20 07:17:01;;;;;;;;;;;17.20;99.90;;;;;;5112592;28;20373;-73
2021/08/20 07:19:32;;;;;;;;;;;17.10;99.90;;;;;;5096185;28;20433;-73
2021/08/20 07:22:04;;;;;;;;;;;17.20;99.90;;;;;;5096357;28;19923;-73
2021/08/20 07:24:36;;;;;;;;;;;17.20;99.90;;;;;;5112521;28;20028;-73
2021/08/20 07:27:08;;;;;;;;;;;17.30;99.90;;;;;;5113817;28;19927;-73
2021/08/20 07:29:39;;;;;;;;;;;17.20;99.90;;;;;;5113776;28;20034;-73
2021/08/20 07:32:06;;;;;;;;;;;17.00;99.90;;;;;;5111957;28;20010;-73
2021/08/20 07:34:33;;;;;;;;;;;17.00;99.90;;;;;;5112544;28;20026;-73
2021/08/20 07:37:06;;;;;;;;;;;17.00;99.90;;;;;;5113633;28;19923;-72
2021/08/20 07:39:33;;;;;;;;;;;17.00;99.90;;;;;;5095317;28;20026;-73
2021/08/20 07:42:05;;;;;;;;;;;17.00;99.90;;;;;;5095700;28;19930;-73
2021/08/20 07:44:32;;;;;;;;;;;17.10;99.90;;;;;;5095324;28;20027;-73
2021/08/20 07:47:04;;;;;;;;;;;17.10;99.90;;;;;;5112282;28;19924;-73
2021/08/20 07:49:31;;;;;;;;;;;17.20;99.90;;;;;;5095216;28;19959;-73
2021/08/20 07:52:03;;;;;;;;;;;17.30;99.90;;;;;;5111864;28;20027;-72
2021/08/20 07:54:34;;;;;;;;;;;17.40;99.90;;;;;;5112097;28;19930;-73
2021/08/20 07:57:01;;;;;;;;;;;17.50;99.90;;;;;;5111868;28;20383;-73
2021/08/20 07:59:32;;;;;;;;;;;17.60;99.90;;;;;;5111924;28;19923;-73
2021/08/20 08:01:59;;;;;;;;;;;17.60;99.90;;;;;;5112864;28;19930;-73
2021/08/20 08:04:31;;;;;;;;;;;17.60;99.90;;;;;;5112003;28;20055;-73
2021/08/20 08:07:01;;;;;;;;;;;17.70;99.90;;;;;;5112017;28;19930;-72
2021/08/20 08:09:28;;;;;;;;;;;17.70;99.90;;;;;;5094648;28;19930;-73
2021/08/20 08:12:00;;;;;;;;;;;17.80;99.90;;;;;;5111323;28;19923;-72
2021/08/20 08:14:29;;;;;;;;;;;17.90;99.90;;;;;;5111654;28;20014;-73
2021/08/20 08:17:00;;;;;;;;;;;18.00;99.90;;;;;;5111914;28;19924;-73
2021/08/20 08:19:32;;;;;;;;;;;18.00;99.90;;;;;;5095162;28;19924;-73
2021/08/20 08:21:59;;;;;;;;;;;18.20;99.90;;;;;;5094419;28;20477;-73
2021/08/20 08:24:50;;;;;;;;;;;18.20;99.90;;;;;;5070235;28;20259;-73
2021/08/20 08:27:16;;;;;;;;;;;18.40;99.90;;;;;;5112749;28;19963;-73
2021/08/20 08:29:44;;;;;;;;;;;18.50;99.90;;;;;;5111758;28;20022;-72
2021/08/20 08:32:11;;;;;;;;;;;18.60;99.90;;;;;;5094302;28;19924;-73
2021/08/20 08:34:42;;;;;;;;;;;18.60;99.90;;;;;;5111438;28;19924;-73
2021/08/20 08:37:14;;;;;;;;;;;18.80;99.90;;;;;;5111244;28;19930;-73
2021/08/20 08:39:41;;;;;;;;;;;18.90;99.90;;;;;;5112660;28;19959;-73
2021/08/20 08:42:12;;;;;;;;;;;19.00;99.90;;;;;;5111365;28;19923;-73
2021/08/20 08:44:44;;;;;;;;;;;19.20;99.90;;;;;;5112574;28;20006;-73
2021/08/20 08:47:16;;;;;;;;;;;19.30;99.90;;;;;;5112398;28;19931;-73
2021/08/20 08:49:48;;;;;;;;;;;19.40;99.90;;;;;;5111093;28;19924;-73
2021/08/20 08:52:15;;;;;;;;;;;19.60;99.90;;;;;;5110750;28;20138;-73
2021/08/20 08:54:41;;;;;;;;;;;19.60;99.90;;;;;;5112423;28;19924;-73
2021/08/20 08:57:08;;;;;;;;;;;19.80;99.90;;;;;;5111241;28;19974;-73
2021/08/20 08:59:35;;;;;;;;;;;19.90;99.90;;;;;;5112197;28;19930;-73
2021/08/20 09:02:21;;;;;;;;;;;20.00;99.90;;;;;;5094043;28;19923;-73
2021/08/20 09:04:54;;;;;;;;;;;20.00;99.90;;;;;;5094976;28;19924;-73
2021/08/20 09:07:21;;;;;;;;;;;20.10;99.90;;;;;;5096079;28;20279;-73
2021/08/20 09:10:07;;;;;;;;;;;20.20;99.90;;;;;;5115519;28;20014;-73
2021/08/20 09:12:34;;;;;;;;;;;20.20;99.90;;;;;;5114981;28;19966;-72
2021/08/20 09:15:06;;;;;;;;;;;20.30;99.90;;;;;;5098992;28;20360;-71
2021/08/20 09:17:34;;;;;;;;;;;20.40;99.90;;;;;;5116269;28;19931;-73
2021/08/20 09:20:12;;;;;;;;;;;20.50;99.90;;;;;;5114841;28;19923;-73
2021/08/20 09:22:44;;;;;;;;;;;20.50;99.90;;;;;;5098518;28;19985;-74
2021/08/20 09:25:31;;;;;;;;;;;20.60;99.90;;;;;;5115056;28;20022;-73
2021/08/20 09:28:21;;;;;;;;;;;20.70;99.90;;;;;;5098567;28;20375;-73
2021/08/20 09:30:54;;;;;;;;;;;20.80;99.90;;;;;;5115909;28;20014;-73
2021/08/20 09:33:31;;;;;;;;;;;20.90;99.90;;;;;;5098532;28;20024;-73
2021/08/20 09:36:03;;;;;;;;;;;21.10;99.90;;;;;;5098402;28;19924;-73
2021/08/20 09:38:36;;;;;;;;;;;21.30;99.90;;;;;;5114818;28;19923;-73
2021/08/20 09:41:09;;;;;;;;;;;21.40;99.90;;;;;;5114267;28;19959;-73
2021/08/20 09:43:41;;;;;;;;;;;21.50;99.90;;;;;;5115872;28;19923;-73
2021/08/20 09:46:08;;;;;;;;;;;21.60;99.90;;;;;;5114538;28;19923;-73
2021/08/20 09:48:48;;;;;;;;;;;21.70;99.90;;;;;;5115886;28;20382;-71
2021/08/20 09:51:33;;;;;;;;;;;21.70;99.90;;;;;;5114723;28;19934;-73
2021/08/20 09:54:01;;;;;;;;;;;21.80;99.90;;;;;;5114869;28;19928;-73
2021/08/20 09:56:33;;;;;;;;;;;21.90;99.90;;;;;;5114784;28;20289;-72
2021/08/20 09:59:00;;;;;;;;;;;21.80;99.90;;;;;;5116701;28;19991;-73
2021/08/20 10:01:36;;;;;;;;;;;21.70;99.90;;;;;;5115419;28;19930;-73
2021/08/20 10:04:08;;;;;;;;;;;21.60;99.90;;;;;;5115189;28;19924;-73
2021/08/20 10:06:41;;;;;;;;;;;21.60;99.90;;;;;;5114197;28;19934;-73
2021/08/20 10:09:15;;;;;;;;;;;21.60;99.90;;;;;;5097729;28;19969;-72
2021/08/20 10:11:51;;;;;;;;;;;21.70;99.90;;;;;;5113987;28;19930;-74
2021/08/20 10:14:24;;;;;;;;;;;21.70;99.90;;;;;;5097763;28;19924;-73
2021/08/20 10:16:55;;;;;;;;;;;21.70;99.90;;;;;;5113920;28;19924;-73
2021/08/20 10:19:27;;;;;;;;;;;21.70;99.90;;;;;;5112626;28;20030;-73
2021/08/20 10:22:00;;;;;;;;;;;21.60;99.90;;;;;;5114834;28;19923;-73
2021/08/20 10:24:26;;;;;;;;;;;21.60;99.90;;;;;;5096846;28;20279;-72
2021/08/20 10:27:00;;;;;;;;;;;21.60;99.90;;;;;;5115078;28;19963;-73
2021/08/20 10:29:29;;;;;;;;;;;21.60;99.90;;;;;;5113729;28;20010;-72
2021/08/20 10:32:05;;;;;;;;;;;21.70;99.90;;;;;;5113395;28;19928;-73
2021/08/20 10:34:39;;;;;;;;;;;21.80;99.90;;;;;;5113740;28;19924;-73
2021/08/20 10:37:13;;;;;;;;;;;22.00;99.90;;;;;;5113564;28;19934;-73
2021/08/20 10:39:46;;;;;;;;;;;22.30;99.90;;;;;;5113482;28;20022;-74
2021/08/20 10:42:22;;;;;;;;;;;22.40;99.90;;;;;;5113112;28;19923;-73
2021/08/20 10:45:04;;;;;;;;;;;22.50;99.90;;;;;;5113650;28;19924;-71
2021/08/20 10:47:36;;;;;;;;;;;22.60;99.90;;;;;;5114568;28;19923;-72
2021/08/20 10:50:08;;;;;;;;;;;22.70;99.90;;;;;;5114321;28;19932;-73
2021/08/20 10:52:40;;;;;;;;;;;22.80;99.90;;;;;;5112882;28;19923;-73
2021/08/20 10:55:20;;;;;;;;;;;23.00;99.90;;;;;;5097000;28;20036;-71
2021/08/20 10:57:51;;;;;;;;;;;23.10;99.90;;;;;;5113443;28;19938;-73
2021/08/20 11:00:24;;;;;;;;;;;23.20;99.90;;;;;;5114139;28;20022;-73
2021/08/20 11:02:57;;;;;;;;;;;23.40;99.90;;;;;;5112813;28;20400;-73
2021/08/20 11:05:35;;;;;;;;;;;23.50;99.90;;;;;;5096642;28;20014;-73
2021/08/20 11:08:26;;;;;;;;;;;23.60;99.90;;;;;;5112978;28;19924;-72
2021/08/20 11:10:53;;;;;;;;;;;23.60;99.90;;;;;;5112747;28;20457;-73
2021/08/20 11:13:25;;;;;;;;;;;23.60;99.90;;;;;;5096564;28;20015;-73
2021/08/20 11:15:54;;;;;;;;;;;23.80;99.90;;;;;;5095864;28;20019;-73
2021/08/20 11:18:39;;;;;;;;;;;23.80;99.90;;;;;;5113859;28;19923;-73
2021/08/20 11:21:30;;;;;;;;;;;23.80;99.90;;;;;;5096179;28;19927;-73
2021/08/20 11:24:09;;;;;;;;;;;23.60;99.90;;;;;;5096345;28;20235;-74
2021/08/20 11:26:37;;;;;;;;;;;23.40;99.90;;;;;;5112899;28;19946;-73
2021/08/20 11:29:09;;;;;;;;;;;23.20;99.90;;;;;;5095980;28;19924;-73
2021/08/20 11:31:41;;;;;;;;;;;23.00;99.90;;;;;;5112011;28;19966;-72
2021/08/20 11:34:14;;;;;;;;;;;23.00;99.90;;;;;;5112403;28;19924;-72
2021/08/20 11:36:59;;;;;;;;;;;23.20;99.90;;;;;;5096270;28;20398;-73
2021/08/20 11:39:31;;;;;;;;;;;23.50;99.90;;;;;;5112310;28;19931;-74
2021/08/20 11:42:08;;;;;;;;;;;23.80;99.90;;;;;;5111777;28;20022;-73
2021/08/20 11:44:42;;;;;;;;;;;24.10;99.90;;;;;;5113480;28;20271;-73
2021/08/20 11:47:14;;;;;;;;;;;24.20;99.90;;;;;;5112277;28;20054;-73
2021/08/20 11:49:41;;;;;;;;;;;24.20;99.90;;;;;;5112102;28;19934;-74
2021/08/20 11:52:07;;;;;;;;;;;24.20;99.90;;;;;;5094771;28;19930;-73
2021/08/20 11:54:39;;;;;;;;;;;24.30;99.90;;;;;;5095802;28;19959;-73
2021/08/20 11:57:11;;;;;;;;;;;24.10;99.90;;;;;;5113294;28;19966;-72
2021/08/20 11:59:55;;;;;;;;;;;23.90;99.90;;;;;;5112209;28;19923;-73
2021/08/20 12:02:22;;;;;;;;;;;23.80;99.90;;;;;;5111579;28;20412;-73
2021/08/20 12:04:49;;;;;;;;;;;23.80;99.90;;;;;;5094916;28;19930;-73
2021/08/20 12:07:33;;;;;;;;;;;24.00;99.90;;;;;;5095529;28;20378;-73
2021/08/20 12:10:05;;;;;;;;;;;24.10;99.90;;;;;;5095629;28;20036;-72
2021/08/20 12:12:33;;;;;;;;;;;24.00;99.90;;;;;;5111372;28;19927;-73
2021/08/20 12:15:06;;;;;;;;;;;24.10;99.90;;;;;;5111701;28;20397;-74
2021/08/20 12:17:33;;;;;;;;;;;24.20;99.90;;;;;;5111396;28;20014;-73
2021/08/20 12:20:02;;;;;;;;;;;24.10;99.90;;;;;;5094672;28;19963;-73
2021/08/20 12:22:36;;;;;;;;;;;24.10;99.90;;;;;;5094269;28;19970;-73
2021/08/20 12:25:15;;;;;;;;;;;24.00;99.90;;;;;;5094703;28;20010;-73
2021/08/20 12:27:47;;;;;;;;;;;24.00;99.90;;;;;;5111394;28;19930;-72
2021/08/20 12:30:25;;;;;;;;;;;24.00;99.90;;;;;;5112657;28;19983;-72
2021/08/20 12:32:58;;;;;;;;;;;24.00;99.90;;;;;;5110897;28;19924;-73
2021/08/20 12:35:26;;;;;;;;;;;23.90;99.90;;;;;;5094485;28;19959;-72
2021/08/20 12:37:59;;;;;;;;;;;23.80;99.90;;;;;;5111494;28;20015;-72
2021/08/20 12:40:41;;;;;;;;;;;23.70;99.90;;;;;;5112395;28;19924;-73
2021/08/20 12:43:32;;;;;;;;;;;23.90;99.90;;;;;;5110698;28;19924;-72
2021/08/20 12:46:12;;;;;;;;;;;24.30;99.90;;;;;;5111355;28;20018;-73
2021/08/20 12:48:53;;;;;;;;;;;24.50;99.90;;;;;;5111043;28;19924;-73
2021/08/20 12:51:25;;;;;;;;;;;24.70;99.90;;;;;;5111211;28;20338;-73
2021/08/20 12:54:00;;;;;;;;;;;24.80;99.90;;;;;;5112443;28;19946;-73
2021/08/20 12:56:36;;;;;;;;;;;24.70;99.30;;;;;;5111118;28;20018;-73
2021/08/20 12:59:09;;;;;;;;;;;24.90;99.90;;;;;;5111340;28;20357;-73
2021/08/20 13:01:36;;;;;;;;;;;25.20;99.90;;;;;;5110647;28;19930;-74
2021/08/20 13:04:08;;;;;;;;;;;25.20;99.90;;;;;;5111536;28;19978;-73
2021/08/20 13:06:40;;;;;;;;;;;25.30;99.90;;;;;;5111106;28;19923;-73
2021/08/20 13:09:12;;;;;;;;;;;25.50;99.90;;;;;;5111199;28;20022;-73
2021/08/20 13:11:43;;;;;;;;;;;25.60;99.90;;;;;;5094593;28;19924;-73
2021/08/20 13:14:15;;;;;;;;;;;25.50;98.50;;;;;;5111097;28;19930;-73
2021/08/20 13:16:42;;;;;;;;;;;25.30;99.40;;;;;;5110818;28;19930;-73
2021/08/20 13:19:08;;;;;;;;;;;25.40;98.40;;;;;;5094004;28;19924;-73
2021/08/20 13:21:40;;;;;;;;;;;25.50;98.10;;;;;;5094334;28;19924;-73
2021/08/20 13:24:12;;;;;;;;;;;25.60;98.90;;;;;;5112122;28;19970;-74
2021/08/20 13:26:44;;;;;;;;;;;25.80;98.50;;;;;;5110951;28;19924;-73
2021/08/20 13:29:11;;;;;;;;;;;26.10;98.10;;;;;;5094030;28;19931;-73
2021/08/20 13:31:43;;;;;;;;;;;26.30;98.10;;;;;;5110634;28;20394;-73
2021/08/20 13:34:14;;;;;;;;;;;26.50;96.30;;;;;;5110835;28;20018;-74
2021/08/20 13:36:41;;;;;;;;;;;26.50;96.70;;;;;;5093847;28;19936;-73
2021/08/20 13:39:08;;;;;;;;;;;26.50;97.30;;;;;;5110764;28;20338;-73
2021/08/20 13:41:40;;;;;;;;;;;26.70;97.20;;;;;;5110559;28;20297;-73
2021/08/20 13:44:06;;;;;;;;;;;26.70;96.30;;;;;;5093856;28;19966;-73
2021/08/20 13:46:35;;;;;;;;;;;26.90;95.80;;;;;;5110740;28;19936;-73
2021/08/20 13:49:07;;;;;;;;;;;26.90;95.80;;;;;;5112108;28;19951;-73
2021/08/20 13:51:34;;;;;;;;;;;27.00;96.00;;;;;;5110358;28;20031;-72
2021/08/20 13:54:06;;;;;;;;;;;27.10;96.70;;;;;;5114976;28;19923;-74
2021/08/20 13:56:38;;;;;;;;;;;27.00;94.10;;;;;;5114398;28;19972;-73
2021/08/20 13:59:09;;;;;;;;;;;27.00;94.20;;;;;;5098167;28;20010;-73
2021/08/20 14:01:41;;;;;;;;;;;27.10;93.80;;;;;;5113879;28;20314;-73
2021/08/20 14:04:08;;;;;;;;;;;27.10;96.00;;;;;;5097557;28;19930;-73
2021/08/20 14:06:34;;;;;;;;;;;27.00;95.20;;;;;;5114324;28;20301;-73
2021/08/20 14:09:01;;;;;;;;;;;26.80;95.60;;;;;;5114326;28;19931;-73
2021/08/20 14:11:33;;;;;;;;;;;26.50;95.50;;;;;;5097619;28;19966;-73
2021/08/20 14:14:04;;;;;;;;;;;26.50;97.60;;;;;;5114729;28;20289;-73
2021/08/20 14:16:36;;;;;;;;;;;26.90;98.10;;;;;;5114207;28;19924;-73
2021/08/20 14:19:08;;;;;;;;;;;27.10;95.50;;;;;;5097723;28;19930;-73
2021/08/20 14:21:34;;;;;;;;;;;27.10;95.20;;;;;;5113463;28;19924;-73
2021/08/20 14:24:06;;;;;;;;;;;26.80;95.00;;;;;;5115122;28;19924;-73
2021/08/20 14:26:38;;;;;;;;;;;26.70;95.00;;;;;;5114082;28;19930;-73
2021/08/20 14:29:10;;;;;;;;;;;26.70;94.00;;;;;;5097682;28;20026;-73
2021/08/20 14:31:41;;;;;;;;;;;27.00;93.80;;;;;;5114660;28;20014;-74
2021/08/20 14:34:09;;;;;;;;;;;27.10;92.40;;;;;;5113869;28;19930;-73
2021/08/20 14:36:40;;;;;;;;;;;27.00;93.40;;;;;;5113893;28;19930;-73
2021/08/20 14:39:12;;;;;;;;;;;27.20;93.50;;;;;;5115035;28;19927;-73
2021/08/20 14:41:44;;;;;;;;;;;27.50;92.60;;;;;;5113175;28;19923;-73
2021/08/20 14:44:15;;;;;;;;;;;27.80;91.70;;;;;;5114752;28;19924;-72